Time;durP1;ratioP1;P1;durP2;ratioP2;P2;SDS_P1;SDS_P2;PMS_P1;PMS_P2;Temp;Humidity;BMP_temperature;BMP_pressure;BME280_temperature;BME280_humidity;BME280_pressure;Samples;Min_cycle;Max_cycle;Signal;HPM_P1;HPM_P2
2022/09/13 00:00:40;;;;;;;22.85;15.48;;;18.20;99.90;;;;;;5071693;28;20398;-75
2022/09/13 00:03:06;;;;;;;23.50;17.02;;;18.50;99.90;;;;;;5053676;28;20227;-75
2022/09/13 00:05:33;;;;;;;29.02;19.30;;;18.60;99.90;;;;;;5071554;28;20147;-74
2022/09/13 00:07:59;;;;;;;24.40;16.42;;;18.20;99.90;;;;;;5071817;28;20052;-75
2022/09/13 00:10:25;;;;;;;28.38;21.23;;;18.00;99.90;;;;;;5070298;28;20040;-75
2022/09/13 00:12:51;;;;;;;29.58;20.92;;;18.00;99.90;;;;;;5070359;28;20115;-74
2022/09/13 00:15:17;;;;;;;30.33;21.95;;;18.30;99.90;;;;;;5053196;28;20616;-75
2022/09/13 00:17:42;;;;;;;30.70;21.02;;;18.30;99.90;;;;;;5070499;28;20293;-75
2022/09/13 00:20:08;;;;;;;23.10;17.48;;;19.40;99.90;;;;;;5070278;28;20466;-74
2022/09/13 00:22:34;;;;;;;22.55;17.30;;;18.30;99.90;;;;;;5070066;28;20037;-75
2022/09/13 00:25:00;;;;;;;23.48;17.95;;;18.10;99.90;;;;;;5069985;28;20089;-74
2022/09/13 00:27:26;;;;;;;22.70;16.45;;;19.30;99.90;;;;;;5070242;28;20051;-75
2022/09/13 00:29:51;;;;;;;22.70;16.52;;;19.00;99.90;;;;;;5070142;28;20437;-75
2022/09/13 00:32:17;;;;;;;23.73;16.05;;;18.20;99.90;;;;;;5071096;28;20055;-75
2022/09/13 00:34:42;;;;;;;21.60;14.45;;;18.40;99.90;;;;;;5069767;28;20028;-75
2022/09/13 00:37:08;;;;;;;21.13;16.20;;;18.10;99.90;;;;;;5078357;28;20052;-75
2022/09/13 00:39:34;;;;;;;20.98;15.48;;;18.20;99.90;;;;;;5089300;28;20036;-74
2022/09/13 00:41:59;;;;;;;22.73;16.10;;;18.60;99.90;;;;;;5092053;28;20036;-75
2022/09/13 00:44:56;;;;;;;23.35;15.52;;;18.30;99.90;;;;;;5075685;28;20048;-74
2022/09/13 00:47:32;;;;;;;16.92;12.95;;;18.20;99.90;;;;;;5071058;28;20052;-75
2022/09/13 00:50:06;;;;;;;18.60;12.95;;;18.30;99.90;;;;;;5053334;28;20059;-74
2022/09/13 00:52:34;;;;;;;19.23;14.52;;;18.10;99.90;;;;;;5074841;28;20551;-75
2022/09/13 00:55:07;;;;;;;19.30;13.57;;;18.20;99.90;;;;;;5073257;28;20043;-75
2022/09/13 00:57:34;;;;;;;19.48;13.40;;;18.00;99.90;;;;;;5073663;28;20802;-74
2022/09/13 01:00:14;;;;;;;18.77;13.13;;;18.00;99.90;;;;;;5073505;28;20037;-74
2022/09/13 01:02:45;;;;;;;16.90;12.40;;;18.30;99.90;;;;;;5073728;28;20041;-74
2022/09/13 01:05:13;;;;;;;18.23;12.02;;;18.50;99.90;;;;;;5073179;28;20051;-74
2022/09/13 01:07:39;;;;;;;20.42;13.00;;;18.00;99.90;;;;;;5073447;28;20462;-74
2022/09/13 01:10:06;;;;;;;15.50;12.32;;;18.10;99.90;;;;;;5073354;28;20072;-74
2022/09/13 01:12:48;;;;;;;19.73;11.80;;;18.20;99.90;;;;;;5074637;28;20048;-74
2022/09/13 01:15:14;;;;;;;15.98;10.98;;;18.10;99.90;;;;;;5073019;28;20043;-74
2022/09/13 01:17:40;;;;;;;16.95;11.25;;;18.30;99.90;;;;;;5073485;28;20049;-74
2022/09/13 01:20:08;;;;;;;13.70;11.07;;;19.10;99.90;;;;;;5073189;28;20041;-75
2022/09/13 01:23:08;;;;;;;16.17;11.38;;;18.10;99.90;;;;;;5073347;28;20041;-75
2022/09/13 01:25:33;;;;;;;13.63;10.27;;;18.30;99.90;;;;;;5072896;28;20094;-75
2022/09/13 01:28:17;;;;;;;14.77;10.77;;;18.20;99.90;;;;;;5056550;28;20511;-74
2022/09/13 01:30:58;;;;;;;14.10;10.60;;;18.10;99.90;;;;;;5072980;28;20055;-75
2022/09/13 01:33:53;;;;;;;14.18;9.90;;;18.10;99.90;;;;;;5072926;28;20044;-75
2022/09/13 01:36:37;;;;;;;13.82;10.20;;;18.30;99.90;;;;;;5062050;28;20506;-74
2022/09/13 01:39:14;;;;;;;13.07;9.23;;;18.20;99.90;;;;;;5072324;28;20068;-75
2022/09/13 01:42:00;;;;;;;14.77;10.10;;;18.70;99.90;;;;;;5074094;28;20086;-75
2022/09/13 01:44:52;;;;;;;15.32;11.68;;;18.10;99.90;;;;;;5072455;28;20052;-75
2022/09/13 01:47:36;;;;;;;11.57;9.43;;;18.20;99.90;;;;;;5072653;28;20048;-74
2022/09/13 01:50:10;;;;;;;14.20;10.23;;;18.00;99.90;;;;;;5072674;28;20036;-74
2022/09/13 01:52:47;;;;;;;17.25;9.52;;;18.90;99.90;;;;;;5072547;28;20054;-75
2022/09/13 01:55:38;;;;;;;15.43;10.68;;;18.00;99.90;;;;;;5073455;28;20041;-74
2022/09/13 01:58:32;;;;;;;14.43;9.82;;;18.00;99.90;;;;;;5073719;28;20049;-75
2022/09/13 02:01:07;;;;;;;15.00;10.77;;;18.70;99.90;;;;;;5071754;28;20052;-74
2022/09/13 02:03:48;;;;;;;13.32;10.57;;;18.00;99.90;;;;;;5054352;28;20036;-74
2022/09/13 02:06:20;;;;;;;13.35;9.93;;;18.10;99.90;;;;;;5072236;28;20041;-75
2022/09/13 02:08:53;;;;;;;12.60;9.67;;;18.20;99.90;;;;;;5072461;28;20033;-74
2022/09/13 02:11:21;;;;;;;14.20;10.27;;;18.20;99.90;;;;;;5073649;28;20036;-74
2022/09/13 02:14:14;;;;;;;16.10;11.27;;;18.10;99.90;;;;;;5073313;28;20072;-74
2022/09/13 02:16:55;;;;;;;13.68;10.30;;;18.00;99.90;;;;;;5072350;28;20509;-75
2022/09/13 02:19:34;;;;;;;11.82;10.23;;;18.20;99.90;;;;;;5073632;28;20210;-75
2022/09/13 02:22:04;;;;;;;15.90;11.73;;;18.20;99.90;;;;;;5072439;28;20071;-75
2022/09/13 02:24:38;;;;;;;12.48;10.25;;;18.30;99.90;;;;;;5071685;28;20573;-74
2022/09/13 02:27:11;;;;;;;15.70;12.23;;;18.10;99.90;;;;;;5073545;28;20150;-74
2022/09/13 02:29:40;;;;;;;15.13;12.05;;;18.10;99.90;;;;;;5056120;28;20616;-74
2022/09/13 02:32:13;;;;;;;17.08;10.70;;;18.50;99.90;;;;;;5073515;28;20556;-75
2022/09/13 02:34:48;;;;;;;14.82;10.75;;;18.10;99.90;;;;;;5055254;28;20087;-75
2022/09/13 02:37:14;;;;;;;18.80;12.40;;;18.00;99.90;;;;;;5071875;28;20043;-74
2022/09/13 02:39:46;;;;;;;15.48;10.95;;;17.90;99.90;;;;;;5073262;28;20032;-75
2022/09/13 02:42:18;;;;;;;16.80;11.57;;;18.30;99.90;;;;;;5071472;28;20043;-74
2022/09/13 02:44:50;;;;;;;22.38;12.98;;;17.90;99.90;;;;;;5071509;28;20036;-75
2022/09/13 02:47:25;;;;;;;18.15;12.63;;;18.00;99.90;;;;;;5071707;28;20048;-74
2022/09/13 02:50:24;;;;;;;18.30;13.20;;;18.00;99.90;;;;;;5071405;28;20048;-74
2022/09/13 02:53:11;;;;;;;15.73;11.80;;;18.30;99.90;;;;;;5072763;28;20111;-76
2022/09/13 02:55:57;;;;;;;16.48;11.85;;;18.00;99.90;;;;;;5071029;28;20032;-76
2022/09/13 02:58:44;;;;;;;19.15;12.95;;;18.10;99.90;;;;;;5071372;28;20503;-75
2022/09/13 03:01:10;;;;;;;21.23;12.07;;;18.20;99.90;;;;;;5072762;28;20051;-75
2022/09/13 03:03:36;;;;;;;12.80;9.07;;;18.20;99.90;;;;;;5071356;28;20040;-75
2022/09/13 03:06:01;;;;;;;11.82;8.70;;;18.70;99.90;;;;;;5054122;28;20036;-75
2022/09/13 03:08:28;;;;;;;12.10;7.53;;;18.20;99.90;;;;;;5072291;28;20041;-76
2022/09/13 03:11:01;;;;;;;9.73;7.95;;;18.50;99.90;;;;;;5072219;28;20094;-75
2022/09/13 03:13:48;;;;;;;9.52;7.00;;;18.00;99.90;;;;;;5072076;28;20044;-76
2022/09/13 03:16:38;;;;;;;8.13;4.95;;;18.10;99.90;;;;;;5071001;28;20090;-75
2022/09/13 03:19:28;;;;;;;6.10;2.90;;;18.20;99.90;;;;;;5070941;28;20106;-75
2022/09/13 03:22:01;;;;;;;2.63;2.40;;;18.10;99.90;;;;;;5070872;28;20579;-76
2022/09/13 03:24:36;;;;;;;;;;;17.80;99.90;;;;;;5071030;28;20046;-75
2022/09/13 03:27:23;;;;;;;2.60;1.70;;;17.80;99.90;;;;;;5054284;28;19916;-75
2022/09/13 03:30:06;;;;;;;4.75;1.48;;;17.90;99.90;;;;;;5054172;28;20041;-75
2022/09/13 03:32:39;;;;;;;;;;;17.80;99.90;;;;;;5071082;28;20119;-76
2022/09/13 03:35:20;;;;;;;3.07;1.63;;;17.90;99.90;;;;;;5071864;28;20114;-76
2022/09/13 03:37:55;;;;;;;2.75;1.63;;;17.90;99.90;;;;;;5071874;28;20130;-76
2022/09/13 03:40:27;;;;;;;4.72;2.10;;;17.90;99.90;;;;;;5072116;28;20150;-75
2022/09/13 03:43:01;;;;;;;3.75;2.20;;;17.80;99.90;;;;;;5070572;28;20048;-76
2022/09/13 03:45:32;;;;;;;2.03;1.48;;;18.60;99.90;;;;;;5053939;28;20398;-76
2022/09/13 03:47:58;;;;;;;4.00;1.58;;;18.00;99.90;;;;;;5071963;28;20066;-75
2022/09/13 03:50:25;;;;;;;2.42;1.27;;;18.40;99.90;;;;;;5071699;28;20123;-75
2022/09/13 03:53:06;;;;;;;3.17;0.98;;;17.90;99.90;;;;;;5071882;28;20123;-75
2022/09/13 03:55:33;;;;;;;1.85;1.08;;;17.80;99.90;;;;;;5071532;28;20037;-76
2022/09/13 03:58:00;;;;;;;3.13;0.90;;;17.70;99.90;;;;;;5071935;28;20049;-75
2022/09/13 04:00:25;;;;;;;3.78;0.90;;;17.80;99.90;;;;;;5071716;28;20052;-76
2022/09/13 04:02:51;;;;;;;2.25;0.90;;;17.80;99.90;;;;;;5053497;28;20037;-76
2022/09/13 04:05:16;;;;;;;4.82;0.80;;;18.70;99.90;;;;;;5073420;28;20379;-75
2022/09/13 04:07:42;;;;;;;6.78;1.20;;;18.20;99.90;;;;;;5089769;28;20044;-75
2022/09/13 04:10:09;;;;;;;2.78;1.00;;;17.90;99.90;;;;;;5093970;28;20052;-75
2022/09/13 04:12:35;;;;;;;5.15;1.38;;;17.70;99.90;;;;;;5083541;28;20234;-76
2022/09/13 04:15:00;;;;;;;2.22;1.10;;;18.20;99.90;;;;;;5071037;28;20085;-75
2022/09/13 04:17:26;;;;;;;4.85;1.70;;;17.90;99.90;;;;;;5070413;28;20056;-76
2022/09/13 04:19:52;;;;;;;6.93;1.55;;;17.70;99.90;;;;;;5070583;28;20048;-75
2022/09/13 04:22:17;;;;;;;3.47;1.30;;;18.60;99.90;;;;;;5071558;28;20520;-75
2022/09/13 04:24:43;;;;;;;7.65;2.30;;;17.60;99.90;;;;;;5070171;28;20515;-75
2022/09/13 04:27:09;;;;;;;8.43;1.55;;;17.80;99.90;;;;;;5057402;28;20059;-75
2022/09/13 04:29:34;;;;;;;3.10;1.52;;;18.30;99.90;;;;;;5075439;28;20383;-75
2022/09/13 04:32:00;;;;;;;3.65;1.20;;;17.90;99.90;;;;;;5075010;28;20044;-75
2022/09/13 04:34:26;;;;;;;2.25;1.33;;;17.80;99.90;;;;;;5075080;28;20383;-76
2022/09/13 04:36:52;;;;;;;3.08;1.38;;;18.00;99.90;;;;;;5074226;28;20045;-75
2022/09/13 04:39:19;;;;;;;7.18;1.42;;;17.70;99.90;;;;;;5075346;28;20036;-76
2022/09/13 04:41:46;;;;;;;2.40;1.08;;;18.50;99.90;;;;;;5057508;28;20398;-76
2022/09/13 04:44:14;;;;;;;2.80;1.20;;;17.60;99.90;;;;;;5073574;28;20040;-76
2022/09/13 04:46:40;;;;;;;4.85;1.58;;;17.90;99.90;;;;;;5075001;28;20158;-76
2022/09/13 04:49:06;;;;;;;6.20;1.40;;;17.60;99.90;;;;;;5057120;28;20048;-76
2022/09/13 04:51:32;;;;;;;8.35;1.67;;;17.50;99.90;;;;;;5075138;28;20043;-76
2022/09/13 04:53:59;;;;;;;3.60;1.65;;;17.60;99.90;;;;;;5074714;28;20430;-75
2022/09/13 04:56:25;;;;;;;4.68;1.73;;;17.50;99.90;;;;;;5073747;28;20047;-76
2022/09/13 04:58:51;;;;;;;5.93;1.73;;;17.50;99.90;;;;;;5074927;28;20039;-75
2022/09/13 05:01:17;;;;;;;6.47;2.00;;;17.60;99.90;;;;;;5057050;28;20036;-76
2022/09/13 05:03:43;;;;;;;4.82;1.83;;;17.40;99.90;;;;;;5073654;28;20032;-75
2022/09/13 05:06:14;;;;;;;7.00;2.25;;;17.60;99.90;;;;;;5074562;28;20410;-76
2022/09/13 05:08:39;;;;;;;7.45;2.13;;;17.60;99.90;;;;;;5074743;28;20453;-76
2022/09/13 05:11:14;;;;;;;7.20;2.10;;;;;;;;;;5073648;28;20032;-75
2022/09/13 05:13:40;;;;;;;4.72;2.10;;;;;;;;;;5074495;28;20119;-76
2022/09/13 05:16:07;;;;;;;2.88;1.77;;;;;;;;;;5073059;28;20356;-76
2022/09/13 05:18:34;;;;;;;6.10;2.70;;;;;;;;;;5073736;28;20057;-76
2022/09/13 05:21:13;;;;;;;3.40;2.00;;;;;;;;;;5073511;28;20470;-76
2022/09/13 05:23:44;;;;;;;5.22;1.80;;;;;;;;;;5074425;28;20036;-76
2022/09/13 05:26:13;;;;;;;8.10;1.60;;;;;;;;;;5072947;28;20043;-76
2022/09/13 05:28:50;;;;;;;7.38;1.80;;;;;;;;;;5073104;28;20044;-75
2022/09/13 05:31:26;;;;;;;5.10;1.15;;;;;;;;;;5074435;28;20098;-76
2022/09/13 05:33:59;;;;;;;8.23;1.60;;;;;;;;;;5084187;22;20084;-73
2022/09/13 05:36:27;;;;;;;8.00;1.73;;;;;;;;;;5035569;28;20522;-75
2022/09/13 05:38:56;;;;;;;5.03;1.90;;;;;;;;;;5019733;28;20044;-75
2022/09/13 05:41:24;;;;;;;7.35;1.80;;;;;;;;;;5053928;28;20044;-75
2022/09/13 05:43:51;;;;;;;4.80;1.85;;;;;;;;;;5035790;28;20048;-74
2022/09/13 05:46:21;;;;;;;6.28;2.42;;;;;;;;;;5036037;28;20075;-74
2022/09/13 05:48:51;;;;;;;5.20;2.22;;;;;;;;;;5019396;28;20041;-74
2022/09/13 05:51:28;;;;;;;8.40;2.13;;;;;;;;;;5019350;28;20107;-74
2022/09/13 05:54:00;;;;;;;8.30;2.10;;;;;;;;;;5053146;28;20666;-73
2022/09/13 05:56:31;;;;;;;6.53;1.98;;;;;;;;;;5052716;28;20048;-74
2022/09/13 05:59:02;;;;;;;6.47;2.60;;;;;;;;;;5016459;28;20514;-74
2022/09/13 06:01:31;;;;;;;9.52;2.38;;;;;;;;;;5046232;28;20044;-75
2022/09/13 06:03:58;;;;;;;6.18;1.63;;;;;;;;;;5042261;28;20387;-74
2022/09/13 06:06:31;;;;;;;4.93;1.90;;;;;;;;;;5044573;28;20044;-74
2022/09/13 06:09:05;;;;;;;6.75;2.40;;;;;;;;;;5048851;28;20036;-75
2022/09/13 06:11:34;;;;;;;5.63;2.20;;;;;;;;;;5059096;28;20111;-76
2022/09/13 06:14:03;;;;;;;9.05;1.92;;;;;;;;;;5044606;28;20040;-75
2022/09/13 06:16:32;;;;;;;9.52;2.10;;;;;;;;;;5045546;28;20051;-75
2022/09/13 06:19:06;;;;;;;6.22;3.35;;;;;;;;;;5057872;28;20036;-75
2022/09/13 06:21:35;;;;;;;7.00;2.53;;;;;;;;;;5064009;28;20534;-75
2022/09/13 06:24:03;;;;;;;3.58;2.00;;;;;;;;;;5057307;28;20506;-75
2022/09/13 06:26:32;;;;;;;6.07;2.22;;;;;;;;;;5046684;28;20322;-73
2022/09/13 06:29:01;;;;;;;5.53;2.42;;;;;;;;;;5039691;28;20132;-75
2022/09/13 06:31:31;;;;;;;5.05;2.30;;;;;;;;;;5065551;28;20067;-75
2022/09/13 06:34:02;;;;;;;6.43;2.30;;;;;;;;;;5056861;28;20120;-76
2022/09/13 06:36:33;;;;;;;5.28;2.05;;;;;;;;;;5045318;28;20044;-75
2022/09/13 06:39:04;;;;;;;7.18;2.78;;;;;;;;;;5035164;28;20498;-74
2022/09/13 06:41:31;;;;;;;10.60;2.17;;;;;;;;;;5017267;28;20040;-75
2022/09/13 06:44:02;;;;;;;7.63;2.15;;;;;;;;;;5016120;28;20091;-75
2022/09/13 06:46:32;;;;;;;6.05;1.95;;;;;;;;;;5034708;28;20100;-75
2022/09/13 06:49:08;;;;;;;8.68;1.90;;;;;;;;;;5049688;28;20499;-74
2022/09/13 06:51:36;;;;;;;6.18;1.50;;;;;;;;;;5022577;28;20343;-72
2022/09/13 06:54:03;;;;;;;7.75;1.60;;;;;;;;;;5043748;28;20043;-72
2022/09/13 06:56:34;;;;;;;8.85;1.88;;;;;;;;;;5049057;28;20041;-74
2022/09/13 06:59:07;;;;;;;6.50;1.52;;;;;;;;;;5032234;28;20036;-74
2022/09/13 07:01:34;;;;;;;5.75;2.00;;;;;;;;;;5014856;28;20087;-74
2022/09/13 07:04:03;;;;;;;4.88;1.80;;;;;;;;;;5032226;28;20045;-74
2022/09/13 07:06:31;;;;;;;10.10;1.73;;;;;;;;;;5049876;28;20553;-74
2022/09/13 07:08:58;;;;;;;4.78;1.50;;;18.20;99.90;;;;;;5015793;28;20131;-73
2022/09/13 07:11:28;;;;;;;5.18;1.48;;;18.30;99.90;;;;;;5016536;28;20033;-73
2022/09/13 07:13:55;;;;;;;3.08;1.60;;;18.30;99.90;;;;;;5050807;28;20406;-74
2022/09/13 07:16:23;;;;;;;5.43;1.23;;;18.60;99.90;;;;;;5016420;28;20110;-73
2022/09/13 07:18:54;;;;;;;5.57;1.13;;;18.40;99.90;;;;;;5033249;28;20463;-73
2022/09/13 07:21:21;;;;;;;7.03;1.25;;;18.50;99.90;;;;;;5050896;28;20040;-74
2022/09/13 07:23:46;;;;;;;4.95;1.83;;;18.50;99.90;;;;;;5016405;28;20025;-73
2022/09/13 07:26:12;;;;;;;6.68;1.00;;;18.50;99.90;;;;;;5032874;28;20040;-75
2022/09/13 07:28:39;;;;;;;3.13;0.90;;;18.60;99.90;;;;;;5032032;28;20041;-74
2022/09/13 07:31:14;;;;;;;3.83;1.13;;;18.40;99.90;;;;;;5049969;28;20120;-75
2022/09/13 07:33:41;;;;;;;4.30;0.88;;;18.50;99.90;;;;;;5017254;28;20068;-75
2022/09/13 07:36:10;;;;;;;5.07;1.02;;;18.50;99.90;;;;;;5031713;28;20052;-75
2022/09/13 07:38:40;;;;;;;5.55;1.52;;;18.30;99.90;;;;;;5033546;28;20040;-75
2022/09/13 07:41:08;;;;;;;5.65;1.00;;;18.60;99.90;;;;;;5033721;28;20047;-75
2022/09/13 07:43:35;;;;;;;5.55;1.00;;;18.50;99.90;;;;;;5033331;28;20033;-76
2022/09/13 07:46:09;;;;;;;5.10;1.35;;;19.10;99.90;;;;;;5033245;28;20040;-75
2022/09/13 07:48:38;;;;;;;5.78;1.08;;;18.80;99.90;;;;;;5033355;28;20094;-75
2022/09/13 07:51:06;;;;;;;7.10;1.30;;;18.70;99.90;;;;;;5017047;28;20044;-75
2022/09/13 07:53:33;;;;;;;3.83;1.00;;;18.80;99.90;;;;;;5051317;28;20037;-75
2022/09/13 07:56:03;;;;;;;5.18;1.38;;;19.40;99.90;;;;;;5051352;28;20040;-75
2022/09/13 07:58:29;;;;;;;5.50;1.20;;;18.80;99.90;;;;;;5051812;28;20046;-76
2022/09/13 08:01:02;;;;;;;4.38;0.90;;;18.80;99.90;;;;;;5051968;28;20044;-75
2022/09/13 08:03:29;;;;;;;2.20;1.20;;;18.90;99.90;;;;;;5016855;28;20414;-71
2022/09/13 08:05:54;;;;;;;3.35;0.88;;;19.10;99.90;;;;;;5032558;28;20116;-76
2022/09/13 08:08:20;;;;;;;5.18;1.15;;;19.00;99.90;;;;;;5050950;28;20124;-76
2022/09/13 08:10:45;;;;;;;3.42;1.00;;;19.00;99.90;;;;;;5033432;28;20041;-76
2022/09/13 08:13:11;;;;;;;5.53;0.80;;;19.20;99.90;;;;;;5051285;28;20526;-76
2022/09/13 08:15:37;;;;;;;2.28;0.80;;;19.30;99.90;;;;;;5016436;28;20410;-75
2022/09/13 08:18:04;;;;;;;4.03;0.90;;;19.90;99.90;;;;;;5016715;28;20128;-76
2022/09/13 08:20:30;;;;;;;11.82;1.60;;;19.50;99.90;;;;;;5033141;28;20033;-76
2022/09/13 08:22:55;;;;;;;5.68;0.88;;;19.30;99.90;;;;;;5032961;28;20037;-76
2022/09/13 08:25:21;;;;;;;3.40;1.20;;;19.30;99.90;;;;;;5032880;28;20660;-76
2022/09/13 08:27:46;;;;;;;5.15;0.88;;;19.60;99.90;;;;;;5050862;28;20457;-76
2022/09/13 08:30:12;;;;;;;5.68;1.98;;;19.50;99.90;;;;;;5050921;28;20061;-76
2022/09/13 08:32:38;;;;;;;7.88;1.40;;;19.70;99.90;;;;;;5032969;28;20193;-76
2022/09/13 08:35:03;;;;;;;5.95;1.25;;;19.70;99.90;;;;;;5050782;28;20037;-76
2022/09/13 08:37:33;;;;;;;7.68;1.10;;;19.60;99.90;;;;;;5050706;28;20172;-77
2022/09/13 08:39:58;;;;;;;6.13;0.95;;;19.50;99.90;;;;;;5016803;28;20041;-76
2022/09/13 08:42:30;;;;;;;3.28;0.75;;;20.30;99.90;;;;;;5050963;28;20410;-76
2022/09/13 08:44:58;;;;;;;4.10;0.70;;;19.50;99.90;;;;;;5032861;28;20380;-76
2022/09/13 08:47:31;;;;;;;4.72;1.25;;;19.60;99.90;;;;;;5033094;28;20044;-76
2022/09/13 08:50:14;;;;;;;;;;;19.70;99.90;;;;;;5033458;28;20521;-76
2022/09/13 08:53:04;;;;;;;3.25;1.10;;;19.60;99.90;;;;;;5032872;28;19929;-76
2022/09/13 08:55:38;;;;;;;5.00;0.85;;;19.50;99.90;;;;;;5032487;28;20052;-76
2022/09/13 08:58:18;;;;;;;6.90;0.80;;;19.60;99.90;;;;;;5032754;28;20044;-76
2022/09/13 09:00:50;;;;;;;5.03;1.10;;;19.80;99.90;;;;;;5032928;28;20044;-77
2022/09/13 09:03:21;;;;;;;3.55;0.95;;;20.00;99.90;;;;;;5032783;28;20036;-76
2022/09/13 09:05:48;;;;;;;5.07;1.00;;;19.90;99.90;;;;;;5031985;28;20041;-76
2022/09/13 09:08:34;;;;;;;5.60;1.35;;;20.30;99.90;;;;;;5032793;28;20077;-76
2022/09/13 09:11:32;;;;;;;3.65;1.10;;;19.80;99.90;;;;;;5015592;28;20048;-76
2022/09/13 09:14:05;;;;;;;2.28;0.60;;;19.70;99.90;;;;;;5036216;28;20052;-76
2022/09/13 09:16:51;;;;;;;5.35;1.20;;;20.10;99.90;;;;;;5036043;28;20041;-76
2022/09/13 09:19:33;;;;;;;8.15;1.00;;;19.80;99.90;;;;;;5054274;28;20037;-76
2022/09/13 09:22:02;;;;;;;6.38;1.17;;;19.60;99.90;;;;;;5036135;28;20041;-76
2022/09/13 09:24:35;;;;;;;4.53;0.80;;;19.50;99.90;;;;;;5035753;28;20037;-76
2022/09/13 09:27:01;;;;;;;5.85;1.08;;;20.00;99.90;;;;;;5035887;28;20045;-76
2022/09/13 09:29:31;;;;;;;3.67;0.90;;;20.70;99.90;;;;;;5019792;28;20347;-76
2022/09/13 09:32:21;;;;;;;5.53;1.05;;;20.30;99.90;;;;;;5054020;28;20041;-76
2022/09/13 09:35:15;;;;;;;4.15;0.82;;;20.60;99.90;;;;;;5019127;28;20049;-76
2022/09/13 09:37:44;;;;;;;4.05;0.65;;;20.60;99.90;;;;;;5035767;28;20070;-76
2022/09/13 09:40:12;;;;;;;4.82;0.85;;;20.70;99.90;;;;;;5052006;28;20087;-76
2022/09/13 09:42:47;;;;;;;7.05;1.20;;;20.60;99.90;;;;;;5051464;28;20068;-76
2022/09/13 09:45:32;;;;;;;6.13;1.00;;;20.10;99.90;;;;;;5035781;28;20041;-76
2022/09/13 09:48:04;;;;;;;5.22;0.80;;;20.50;99.90;;;;;;5025159;28;20172;-76
2022/09/13 09:50:38;;;;;;;6.95;1.40;;;20.40;99.90;;;;;;5036144;28;20503;-76
2022/09/13 09:53:15;;;;;;;4.45;1.05;;;21.20;99.90;;;;;;5035817;28;20063;-77
2022/09/13 09:56:02;;;;;;;8.05;2.03;;;20.80;99.90;;;;;;5035471;28;20049;-76
2022/09/13 09:58:45;;;;;;;3.22;0.75;;;21.10;99.90;;;;;;5035355;28;20057;-76
2022/09/13 10:01:36;;;;;;;4.73;0.70;;;21.10;99.90;;;;;;5053870;28;20120;-76
2022/09/13 10:04:04;;;;;;;7.25;1.02;;;20.70;99.90;;;;;;5036630;28;20312;-75
2022/09/13 10:06:31;;;;;;;4.25;1.80;;;20.20;99.90;;;;;;5015536;28;20037;-75
2022/09/13 10:09:03;;;;;;;4.68;1.40;;;21.20;99.90;;;;;;5033602;28;20051;-76
2022/09/13 10:11:49;;;;;;;8.10;1.30;;;20.30;99.90;;;;;;5052755;28;20115;-76
2022/09/13 10:14:37;;;;;;;7.80;2.42;;;19.90;99.90;;;;;;5051380;28;20080;-75
2022/09/13 10:17:20;;;;;;;5.20;1.50;;;20.00;99.90;;;;;;5033733;28;20170;-75
2022/09/13 10:19:57;;;;;;;12.13;2.55;;;20.00;99.90;;;;;;5015545;28;20316;-72
2022/09/13 10:22:23;;;;;;;4.65;1.00;;;20.20;99.90;;;;;;5047548;28;20414;-75
2022/09/13 10:24:49;;;;;;;3.97;0.85;;;20.90;99.90;;;;;;5040532;28;20040;-76
2022/09/13 10:27:38;;;;;;;8.15;1.45;;;20.40;99.90;;;;;;5036090;28;20068;-75
2022/09/13 10:30:05;;;;;;;5.70;1.00;;;20.50;99.90;;;;;;5029323;28;20462;-75
2022/09/13 10:32:32;;;;;;;2.50;0.80;;;20.50;99.90;;;;;;5032093;28;20041;-75
2022/09/13 10:35:09;;;;;;;3.05;0.70;;;20.80;99.90;;;;;;5015193;28;20052;-75
2022/09/13 10:37:35;;;;;;;6.85;0.88;;;20.90;99.90;;;;;;5033150;28;20723;-76
2022/09/13 10:40:17;;;;;;;6.05;0.77;;;21.10;99.90;;;;;;5035944;28;20040;-76
2022/09/13 10:42:55;;;;;;;5.53;1.67;;;21.00;99.90;;;;;;5044400;28;20037;-76
2022/09/13 10:45:24;;;;;;;3.63;1.10;;;21.20;99.90;;;;;;5023464;28;20041;-76
2022/09/13 10:47:57;;;;;;;6.90;2.75;;;21.20;99.90;;;;;;5034123;28;20045;-76
2022/09/13 10:50:25;;;;;;;5.18;2.30;;;21.10;99.90;;;;;;5033753;28;20041;-76
2022/09/13 10:52:51;;;;;;;4.68;1.30;;;22.40;99.90;;;;;;5051442;28;20567;-73
2022/09/13 10:55:19;;;;;;;4.70;1.50;;;22.30;99.90;;;;;;5051153;28;20048;-76
2022/09/13 10:57:50;;;;;;;5.15;1.67;;;21.60;99.90;;;;;;5033154;28;20514;-75
2022/09/13 11:00:34;;;;;;;4.30;1.13;;;21.40;99.90;;;;;;5043532;28;20037;-75
2022/09/13 11:03:37;;;;;;;4.75;1.23;;;21.40;99.90;;;;;;5051042;28;20045;-75
2022/09/13 11:06:12;;;;;;;4.30;0.77;;;21.40;99.90;;;;;;5050818;28;20079;-75
2022/09/13 11:08:59;;;;;;;2.63;0.85;;;21.00;99.90;;;;;;5031697;28;20044;-76
2022/09/13 11:11:51;;;;;;;3.28;0.77;;;20.60;99.90;;;;;;5033232;28;20067;-76
2022/09/13 11:14:22;;;;;;;8.40;1.00;;;20.50;99.90;;;;;;5050345;28;20079;-77
2022/09/13 11:16:54;;;;;;;6.28;0.82;;;21.20;99.90;;;;;;5033644;28;20391;-75
2022/09/13 11:19:44;;;;;;;1.63;0.70;;;21.00;99.90;;;;;;5016979;28;20045;-76
2022/09/13 11:22:50;;;;;;;3.90;1.00;;;21.20;99.90;;;;;;5014244;28;20052;-75
2022/09/13 11:25:37;;;;;;;2.92;0.90;;;21.30;99.90;;;;;;5005184;28;20036;-75
2022/09/13 11:28:37;;;;;;;2.60;0.68;;;21.40;99.90;;;;;;5033094;28;20106;-75
2022/09/13 11:31:34;;;;;;;7.22;0.93;;;21.30;99.90;;;;;;5032704;28;20094;-75
2022/09/13 11:34:29;;;;;;;2.58;0.60;;;21.20;99.90;;;;;;5062014;22;20518;-74
2022/09/13 11:37:16;;;;;;;5.53;1.23;;;21.40;99.90;;;;;;5069222;28;20054;-74
2022/09/13 11:40:00;;;;;;;6.63;1.00;;;21.40;99.90;;;;;;5069191;28;20146;-74
2022/09/13 11:42:35;;;;;;;4.13;0.80;;;21.60;99.90;;;;;;5069807;28;20505;-73
2022/09/13 11:45:17;;;;;;;4.22;0.80;;;21.20;99.90;;;;;;5049215;28;20506;-73
2022/09/13 11:47:49;;;;;;;4.77;1.43;;;21.30;99.90;;;;;;5049705;28;20033;-73
2022/09/13 11:50:38;;;;;;;2.92;0.65;;;21.50;99.90;;;;;;5043845;28;20045;-73
2022/09/13 11:53:35;;;;;;;4.38;1.33;;;21.90;99.90;;;;;;5029879;28;20040;-73
2022/09/13 11:56:07;;;;;;;6.78;2.50;;;21.60;99.90;;;;;;5046713;28;20060;-73
2022/09/13 11:58:50;;;;;;;5.28;1.48;;;21.80;99.90;;;;;;5049798;28;20049;-73
2022/09/13 12:01:32;;;;;;;8.80;1.67;;;21.40;99.90;;;;;;5049007;28;20098;-73
2022/09/13 12:04:07;;;;;;;5.67;1.67;;;21.40;99.90;;;;;;5049157;28;20074;-73
2022/09/13 12:06:37;;;;;;;7.05;1.48;;;21.50;99.90;;;;;;5049331;28;20029;-73
2022/09/13 12:09:43;;;;;;;3.70;1.17;;;21.80;99.90;;;;;;5032901;28;20041;-73
2022/09/13 12:12:13;;;;;;;5.63;1.48;;;21.70;99.90;;;;;;5048097;28;20095;-73
2022/09/13 12:14:51;;;;;;;6.30;1.50;;;21.40;99.90;;;;;;5029975;28;20044;-73
2022/09/13 12:17:33;;;;;;;7.65;1.52;;;21.90;99.90;;;;;;5014129;28;20045;-74
2022/09/13 12:20:00;;;;;;;3.58;1.10;;;21.60;99.90;;;;;;5048683;28;20033;-74
2022/09/13 12:22:31;;;;;;;6.15;1.10;;;21.80;99.90;;;;;;5049389;28;20179;-73
2022/09/13 12:25:02;;;;;;;6.38;1.67;;;22.20;99.90;;;;;;5047282;28;20032;-73
2022/09/13 12:27:47;;;;;;;8.90;1.98;;;21.70;99.90;;;;;;5049163;28;20072;-73
2022/09/13 12:30:22;;;;;;;7.28;1.20;;;21.60;99.90;;;;;;5037352;28;20035;-73
2022/09/13 12:32:49;;;;;;;8.02;2.08;;;21.30;99.90;;;;;;5017750;28;20037;-73
2022/09/13 12:35:36;;;;;;;8.93;1.75;;;21.50;99.90;;;;;;5037133;28;20380;-73
2022/09/13 12:38:16;;;;;;;8.23;1.95;;;21.50;99.90;;;;;;5013055;28;20050;-73
2022/09/13 12:40:56;;;;;;;3.65;1.00;;;21.40;99.90;;;;;;5031261;28;20396;-73
2022/09/13 12:43:57;;;;;;;6.45;1.20;;;21.80;99.90;;;;;;5045704;28;20099;-74
2022/09/13 12:46:37;;;;;;;6.88;1.63;;;21.20;99.90;;;;;;5049916;28;20072;-72
2022/09/13 12:49:39;;;;;;;6.15;1.48;;;21.10;99.90;;;;;;5022001;28;20140;-73
2022/09/13 12:52:39;;;;;;;7.10;1.23;;;21.40;99.90;;;;;;5024577;28;20037;-73
2022/09/13 12:55:29;;;;;;;7.47;1.30;;;21.70;99.90;;;;;;5074922;28;20037;-73
2022/09/13 12:58:28;;;;;;;7.32;1.80;;;21.70;99.90;;;;;;5045199;28;20100;-73
2022/09/13 13:00:56;;;;;;;5.88;1.67;;;22.10;99.90;;;;;;5054726;28;20097;-73
2022/09/13 13:03:29;;;;;;;5.85;1.67;;;21.90;99.90;;;;;;5053926;28;20116;-74
2022/09/13 13:06:06;;;;;;;;;;;22.10;99.90;;;;;;5044900;28;20091;-72
2022/09/13 13:08:32;;;;;;;6.95;1.40;;;21.40;99.90;;;;;;5033697;28;19924;-74
2022/09/13 13:11:06;;;;;;;6.72;1.63;;;22.40;99.90;;;;;;5032791;28;20104;-74
2022/09/13 13:13:34;;;;;;;6.93;1.50;;;21.70;99.90;;;;;;5033724;28;20121;-74
2022/09/13 13:16:03;;;;;;;7.90;1.25;;;21.70;99.90;;;;;;5033575;28;20080;-73
2022/09/13 13:18:47;;;;;;;8.35;2.88;;;21.40;99.90;;;;;;5032431;28;20045;-74
2022/09/13 13:21:30;;;;;;;8.40;1.88;;;21.30;99.90;;;;;;5034231;28;20045;-75
2022/09/13 13:24:14;;;;;;;6.18;1.63;;;21.10;99.90;;;;;;5016172;28;20435;-71
2022/09/13 13:26:53;;;;;;;9.23;1.25;;;21.30;99.90;;;;;;5052562;28;20157;-72
2022/09/13 13:29:28;;;;;;;7.32;1.75;;;21.70;99.90;;;;;;5052311;28;20041;-72
2022/09/13 13:32:01;;;;;;;7.25;1.50;;;21.90;99.90;;;;;;5051918;28;20044;-72